Airfield :
LOGIN :

Register | Disclaimer

   EN    FR    IT 

 










Legend :    VFR   Marginal VFR   IFR   Intensive IFR   Very Intensive IFR
Visi :
Ceiling :
>= 8 km
>= 3000ft
5 to 8 km
1000 to 3000 ft
1500m to 5 km
500 to 1000 ft
800 to 1500m
200 to 500 ft
< 800m
< 200 ft
Symbols :   Thunderstorms  Fog  Heavy snow  Heavy precipitations  Wind > 20 kt
SIGMETs :     Misc.  Thunderstorms  Icing  Turbulence  Mountain Waves  Volcanic Ashes






- Airport Elevation : 16 ft
- IATA code : SDR


LEXJ - Santander Cantabria

CURRENT METAR :
  • 281830Z 08008KT 010V140 CAVOK 19/14 Q1015

EXPIRED METARs :
  • 281800Z 08009KT 030V140 CAVOK 19/14 Q1015
  • 281730Z 07007KT 010V130 CAVOK 19/14 Q1015
  • 281700Z 05010KT 360V110 CAVOK 19/15 Q1015
  • 281630Z 05012KT 350V100 CAVOK 19/15 Q1015
  • 281600Z 05012G22KT 360V100 CAVOK 19/16 Q1016

TAF TAF LEXJ
Valid from the 28 at 15:00 until the 29 at 15:00 UTC


281400Z 2815/2915 06012KT CAVOK TX23/2914Z TN13/2905Z
PROB40
TEMPO 2815/2818 04015G25KT
TEMPO 2823/2907 VRB03KT



MET'MAP, your aeronautical weather chart ! - Copyright ORBIFLY December 2007 - Disclaimer

ORBIFLY MET'MAP TEAM :

Programming & Development : Alexandra Zaïnal
Original concept : Baudouin d'Aumeries
Technical & hardware support : Manuel Goepfert
Assistance : Marc-Olivier Méhu

Contact : metmap@orbifly.com




SOURCES & CREDITS :

   NOAA